createdAt,value
2023-06-07T00:00:29.050Z,1875.00
2023-06-07T00:01:29.108Z,1868.00
2023-06-07T00:02:42.174Z,1864.00
2023-06-07T00:03:30.289Z,1865.00
2023-06-07T00:04:29.278Z,1867.00
2023-06-07T00:05:29.126Z,1875.00
2023-06-07T00:06:29.139Z,1888.00
2023-06-07T00:07:29.110Z,1917.00
2023-06-07T00:08:29.121Z,1910.00
2023-06-07T00:09:29.248Z,1907.00
2023-06-07T00:10:29.112Z,1915.00
2023-06-07T00:11:29.104Z,1911.00
2023-06-07T00:12:29.111Z,1926.00
2023-06-07T00:13:29.159Z,1954.00
2023-06-07T00:14:29.212Z,1941.00
2023-06-07T00:15:29.243Z,1933.00
2023-06-07T00:16:29.284Z,1959.00
2023-06-07T00:17:29.489Z,1977.00
2023-06-07T00:18:29.585Z,1969.00
2023-06-07T00:19:29.431Z,1992.00
2023-06-07T00:20:29.470Z,2027.00
2023-06-07T00:21:29.473Z,2012.00
2023-06-07T00:22:29.497Z,1999.00
2023-06-07T00:23:29.629Z,2027.00
2023-06-07T00:24:29.597Z,2056.00
2023-06-07T00:25:29.610Z,2027.00
2023-06-07T00:26:29.631Z,2000.00
2023-06-07T00:27:29.651Z,2002.00
2023-06-07T00:28:29.941Z,2010.00
2023-06-07T00:29:29.685Z,2032.00
2023-06-07T00:30:29.713Z,2045.00
2023-06-07T00:31:29.853Z,2075.00
2023-06-07T00:32:29.869Z,2077.00
2023-06-07T00:33:29.842Z,2081.00
2023-06-07T00:34:29.878Z,2090.00
2023-06-07T00:35:29.911Z,2089.00
2023-06-07T00:36:29.951Z,2106.00
2023-06-07T00:37:29.968Z,2119.00
2023-06-07T00:38:29.989Z,2095.00
2023-06-07T00:39:30.005Z,2109.00
2023-06-07T00:40:30.029Z,2124.00
2023-06-07T00:41:30.047Z,2149.00
2023-06-07T00:42:30.063Z,2155.00
2023-06-07T00:43:30.088Z,2169.00
2023-06-07T00:44:30.108Z,2194.00
2023-06-07T00:45:30.129Z,2214.00
2023-06-07T00:46:30.166Z,2197.00
2023-06-07T00:47:30.202Z,2217.00
2023-06-07T00:48:30.257Z,2264.00
2023-06-07T00:49:30.160Z,2278.00
2023-06-07T00:50:30.169Z,2305.00
2023-06-07T00:51:30.189Z,2291.00
2023-06-07T00:52:30.201Z,2326.00
2023-06-07T00:53:30.248Z,2323.00
2023-06-07T00:54:30.271Z,2340.00
2023-06-07T00:55:30.281Z,2329.00
2023-06-07T00:56:30.288Z,2344.00
2023-06-07T00:57:30.316Z,2349.00
2023-06-07T00:58:30.338Z,2344.00
2023-06-07T00:59:30.358Z,2335.00
2023-06-07T01:00:30.351Z,2337.00
2023-06-07T01:01:30.520Z,2359.00
2023-06-07T01:02:30.473Z,2360.00
2023-06-07T01:03:30.499Z,2350.00
2023-06-07T01:04:30.432Z,2345.00
2023-06-07T01:05:30.434Z,2346.00
2023-06-07T01:06:30.474Z,2344.00
2023-06-07T01:07:30.467Z,2356.00
2023-06-07T01:08:30.488Z,2343.00
2023-06-07T01:09:30.520Z,2349.00
2023-06-07T01:10:30.509Z,2350.00
2023-06-07T01:11:30.499Z,2341.00
2023-06-07T01:12:30.524Z,2353.00
2023-06-07T01:13:30.517Z,2325.00
2023-06-07T01:14:30.523Z,2326.00
2023-06-07T01:15:30.544Z,2330.00
2023-06-07T01:16:30.591Z,2330.00
2023-06-07T01:17:30.602Z,2297.00
2023-06-07T01:18:30.599Z,2296.00
2023-06-07T01:19:30.625Z,2303.00
2023-06-07T01:20:30.632Z,2300.00
2023-06-07T01:21:30.636Z,2289.00
2023-06-07T01:22:30.649Z,2288.00
2023-06-07T01:23:30.637Z,2278.00
2023-06-07T01:24:30.645Z,2297.00
2023-06-07T01:25:30.637Z,2283.00
2023-06-07T01:26:30.642Z,2310.00
2023-06-07T01:27:30.644Z,2299.00
2023-06-07T01:28:30.626Z,2322.00
2023-06-07T01:29:30.638Z,2325.00
2023-06-07T01:30:30.691Z,2301.00
2023-06-07T01:31:30.647Z,2305.00
2023-06-07T01:32:30.658Z,2315.00
2023-06-07T01:33:30.639Z,2326.00
2023-06-07T01:34:30.633Z,2334.00
2023-06-07T01:35:30.651Z,2338.00
2023-06-07T01:36:30.642Z,2314.00
2023-06-07T01:37:30.653Z,2310.00
2023-06-07T01:38:30.663Z,2324.00
2023-06-07T01:39:30.645Z,2295.00
2023-06-07T01:40:30.657Z,2277.00
2023-06-07T01:41:30.660Z,2305.00
2023-06-07T01:42:30.675Z,2306.00
2023-06-07T01:43:30.679Z,2288.00
2023-06-07T01:44:30.663Z,2290.00
2023-06-07T01:45:30.723Z,2288.00
2023-06-07T01:46:30.722Z,2280.00
2023-06-07T01:47:30.697Z,2293.00
2023-06-07T01:48:30.692Z,2286.00
2023-06-07T01:49:30.692Z,2284.00
2023-06-07T01:50:30.679Z,2262.00
2023-06-07T01:51:30.693Z,2270.00
2023-06-07T01:52:30.671Z,2277.00
2023-06-07T01:53:30.692Z,2289.00
2023-06-07T01:54:30.703Z,2297.00
2023-06-07T01:55:30.692Z,2304.00
2023-06-07T01:56:30.703Z,2312.00
2023-06-07T01:57:30.728Z,2284.00
2023-06-07T01:58:30.672Z,2294.00
2023-06-07T01:59:30.687Z,2302.00
2023-06-07T02:00:30.684Z,2281.00
2023-06-07T02:01:30.715Z,2278.00
2023-06-07T02:02:30.750Z,2289.00
2023-06-07T02:03:30.688Z,2276.00
2023-06-07T02:04:30.687Z,2272.00
2023-06-07T02:05:30.705Z,2269.00
2023-06-07T02:06:30.681Z,2275.00
2023-06-07T02:07:30.681Z,2268.00
2023-06-07T02:08:30.694Z,2270.00
2023-06-07T02:09:30.677Z,2274.00
2023-06-07T02:10:30.672Z,2276.00
2023-06-07T02:11:30.668Z,2273.00
2023-06-07T02:12:30.670Z,2284.00
2023-06-07T02:13:30.695Z,2285.00
2023-06-07T02:14:30.676Z,2278.00
2023-06-07T02:15:30.699Z,2274.00
2023-06-07T02:16:30.682Z,2270.00
2023-06-07T02:17:30.858Z,2263.00
2023-06-07T02:18:30.700Z,2243.00
2023-06-07T02:19:30.691Z,2260.00
2023-06-07T02:20:30.716Z,2257.00
2023-06-07T02:21:30.704Z,2243.00
2023-06-07T02:22:30.729Z,2266.00
2023-06-07T02:23:30.713Z,2286.00
2023-06-07T02:24:30.703Z,2279.00
2023-06-07T02:25:30.693Z,2261.00
2023-06-07T02:26:30.720Z,2284.00
2023-06-07T02:27:30.696Z,2280.00
2023-06-07T02:28:30.722Z,2281.00
2023-06-07T02:29:30.700Z,2276.00
2023-06-07T02:30:30.719Z,2299.00
2023-06-07T02:31:30.744Z,2321.00
2023-06-07T02:32:30.723Z,2306.00
2023-06-07T02:33:30.721Z,2307.00
2023-06-07T02:34:30.722Z,2309.00
2023-06-07T02:35:30.778Z,2327.00
2023-06-07T02:36:30.734Z,2328.00
2023-06-07T02:37:30.735Z,2337.00
2023-06-07T02:38:30.762Z,2350.00
2023-06-07T02:39:30.753Z,2348.00
2023-06-07T02:40:30.785Z,2343.00
2023-06-07T02:41:30.777Z,2333.00
2023-06-07T02:42:30.770Z,2354.00
2023-06-07T02:43:30.786Z,2353.00
2023-06-07T02:44:30.777Z,2347.00
2023-06-07T02:45:30.787Z,2349.00
2023-06-07T02:46:30.808Z,2358.00
2023-06-07T02:47:30.806Z,2352.00
2023-06-07T02:48:30.824Z,2328.00
2023-06-07T02:49:30.823Z,2333.00
2023-06-07T02:50:30.854Z,2337.00
2023-06-07T02:51:30.859Z,2319.00
2023-06-07T02:52:30.848Z,2317.00
2023-06-07T02:53:30.841Z,2318.00
2023-06-07T02:54:30.871Z,2300.00
2023-06-07T02:55:30.882Z,2319.00
2023-06-07T02:56:30.887Z,2313.00
2023-06-07T02:57:30.914Z,2336.00
2023-06-07T02:58:30.896Z,2327.00
2023-06-07T02:59:30.908Z,2331.00
2023-06-07T03:00:30.920Z,2367.00
2023-06-07T03:01:30.974Z,2374.00
2023-06-07T03:02:31.068Z,2395.00
2023-06-07T03:03:31.073Z,2415.00
2023-06-07T03:04:30.966Z,2432.00
2023-06-07T03:05:30.970Z,2427.00
2023-06-07T03:06:31.001Z,2476.00
2023-06-07T03:07:30.990Z,2455.00
2023-06-07T03:08:31.006Z,2485.00
2023-06-07T03:09:31.008Z,2476.00
2023-06-07T03:10:31.033Z,2507.00
2023-06-07T03:11:31.016Z,2496.00
2023-06-07T03:12:31.035Z,2500.00
2023-06-07T03:13:31.059Z,2513.00
2023-06-07T03:14:31.070Z,2502.00
2023-06-07T03:15:31.060Z,2514.00
2023-06-07T03:16:31.178Z,2539.00
2023-06-07T03:17:31.117Z,2542.00
2023-06-07T03:18:31.074Z,2556.00
2023-06-07T03:19:31.123Z,2547.00
2023-06-07T03:20:31.152Z,2548.00
2023-06-07T03:21:31.117Z,2557.00
2023-06-07T03:22:31.135Z,2540.00
2023-06-07T03:23:31.214Z,2537.00
2023-06-07T03:24:31.148Z,2551.00
2023-06-07T03:25:31.277Z,2558.00
2023-06-07T03:26:31.184Z,2555.00
2023-06-07T03:27:31.201Z,2538.00
2023-06-07T03:28:31.194Z,2517.00
2023-06-07T03:29:31.220Z,2519.00
2023-06-07T03:30:31.240Z,2531.00
2023-06-07T03:31:31.272Z,2541.00
2023-06-07T03:32:31.258Z,2527.00
2023-06-07T03:33:31.255Z,2511.00
2023-06-07T03:34:31.255Z,2512.00
2023-06-07T03:35:31.282Z,2519.00
2023-06-07T03:36:31.303Z,2508.00
2023-06-07T03:37:31.312Z,2511.00
2023-06-07T03:38:31.320Z,2501.00
2023-06-07T03:39:31.314Z,2493.00
2023-06-07T03:40:31.348Z,2481.00
2023-06-07T03:41:31.358Z,2467.00
2023-06-07T03:42:31.368Z,2470.00
2023-06-07T03:43:31.362Z,2457.00
2023-06-07T03:44:31.404Z,2420.00
2023-06-07T03:45:31.414Z,2404.00
2023-06-07T03:46:31.429Z,2408.00
2023-06-07T03:47:31.465Z,2413.00
2023-06-07T03:48:31.553Z,2435.00
2023-06-07T03:49:31.445Z,2415.00
2023-06-07T03:50:31.467Z,2412.00
2023-06-07T03:51:31.455Z,2396.00
2023-06-07T03:52:31.463Z,2371.00
2023-06-07T03:53:31.502Z,2367.00
2023-06-07T03:54:31.484Z,2370.00
2023-06-07T03:55:31.524Z,2370.00
2023-06-07T03:56:31.520Z,2349.00
2023-06-07T03:57:31.551Z,2335.00
2023-06-07T03:58:31.532Z,2300.00
2023-06-07T03:59:31.577Z,2308.00
2023-06-07T04:00:31.567Z,2305.00
2023-06-07T04:01:31.597Z,2327.00
2023-06-07T04:02:31.653Z,2304.00
2023-06-07T04:03:31.672Z,2313.00
2023-06-07T04:04:31.692Z,2298.00
2023-06-07T04:05:31.636Z,2304.00
2023-06-07T04:06:31.667Z,2322.00
2023-06-07T04:07:31.644Z,2307.00
2023-06-07T04:08:31.651Z,2307.00
2023-06-07T04:09:31.685Z,2297.00
2023-06-07T04:10:31.690Z,2299.00
2023-06-07T04:11:31.701Z,2298.00
2023-06-07T04:12:31.713Z,2302.00
2023-06-07T04:13:31.723Z,2302.00
2023-06-07T04:14:31.735Z,2301.00
2023-06-07T04:15:31.737Z,2271.00
2023-06-07T04:16:31.788Z,2285.00
2023-06-07T04:17:31.862Z,2304.00
2023-06-07T04:18:31.791Z,2293.00
2023-06-07T04:19:31.784Z,2292.00
2023-06-07T04:20:31.802Z,2265.00
2023-06-07T04:21:31.813Z,2279.00
2023-06-07T04:22:31.856Z,2271.00
2023-06-07T04:23:31.859Z,2256.00
2023-06-07T04:24:31.842Z,2275.00
2023-06-07T04:25:31.831Z,2286.00
2023-06-07T04:26:31.848Z,2265.00
2023-06-07T04:27:31.870Z,2258.00
2023-06-07T04:28:31.919Z,2259.00
2023-06-07T04:29:31.882Z,2254.00
2023-06-07T04:30:31.900Z,2261.00
2023-06-07T04:31:31.943Z,2254.00
2023-06-07T04:32:31.927Z,2254.00
2023-06-07T04:33:31.890Z,2265.00
2023-06-07T04:34:31.906Z,2247.00
2023-06-07T04:35:31.949Z,2237.00
2023-06-07T04:36:31.920Z,2233.00
2023-06-07T04:37:32.922Z,2232.00
2023-06-07T04:38:33.354Z,2251.00
2023-06-07T04:39:31.938Z,2251.00
2023-06-07T04:40:31.945Z,2238.00
2023-06-07T04:41:32.046Z,2261.00
2023-06-07T04:42:31.940Z,2260.00
2023-06-07T04:43:31.943Z,2261.00
2023-06-07T04:44:31.963Z,2271.00
2023-06-07T04:45:32.002Z,2270.00
2023-06-07T04:46:32.181Z,2260.00
2023-06-07T04:47:32.014Z,2259.00
2023-06-07T04:48:31.982Z,2315.00
2023-06-07T04:49:31.986Z,2343.00
2023-06-07T04:50:31.982Z,2392.00
2023-06-07T04:51:32.009Z,2423.00
2023-06-07T04:52:31.997Z,2430.00
2023-06-07T04:53:31.978Z,2435.00
2023-06-07T04:54:31.980Z,2457.00
2023-06-07T04:55:31.982Z,2479.00
2023-06-07T04:56:31.982Z,2478.00
2023-06-07T04:57:31.996Z,2490.00
2023-06-07T04:58:31.971Z,2512.00
2023-06-07T04:59:31.993Z,2515.00
2023-06-07T05:00:32.003Z,2500.00
2023-06-07T05:01:32.006Z,2499.00
2023-06-07T05:02:32.024Z,2500.00
2023-06-07T05:03:32.006Z,2518.00
2023-06-07T05:04:32.035Z,2524.00
2023-06-07T05:05:32.067Z,2531.00
2023-06-07T05:06:32.049Z,2531.00
2023-06-07T05:07:32.043Z,2551.00
2023-06-07T05:08:32.081Z,2523.00
2023-06-07T05:09:32.165Z,2541.00
2023-06-07T05:10:32.125Z,2542.00
2023-06-07T05:11:32.138Z,2537.00
2023-06-07T05:12:32.143Z,2547.00
2023-06-07T05:13:32.198Z,2553.00
2023-06-07T05:14:32.213Z,2549.00
2023-06-07T05:15:32.225Z,2579.00
2023-06-07T05:16:32.326Z,2576.00
2023-06-07T05:17:32.279Z,2552.00
2023-06-07T05:18:32.255Z,2550.00
2023-06-07T05:19:32.309Z,2577.00
2023-06-07T05:20:32.350Z,2533.00
2023-06-07T05:21:32.427Z,2522.00
2023-06-07T05:22:32.462Z,2509.00
2023-06-07T05:23:32.478Z,2498.00
2023-06-07T05:24:32.532Z,2574.00
2023-06-07T05:25:32.638Z,2588.00
2023-06-07T05:26:33.036Z,2583.00
2023-06-07T05:27:32.693Z,2592.00
2023-06-07T05:28:32.750Z,2533.00
2023-06-07T05:29:32.814Z,2537.00
2023-06-07T05:30:32.851Z,2552.00
2023-06-07T05:31:32.978Z,2600.00
2023-06-07T05:32:33.010Z,2750.00
2023-06-07T05:33:33.032Z,2885.00
2023-06-07T05:34:33.097Z,2978.00
2023-06-07T05:35:33.167Z,3026.00
2023-06-07T05:36:33.201Z,3130.00
2023-06-07T05:37:33.239Z,3213.00
2023-06-07T05:38:33.382Z,3263.00
2023-06-07T05:39:33.326Z,3299.00
2023-06-07T05:40:33.374Z,3337.00
2023-06-07T05:41:33.511Z,3370.00
2023-06-07T05:42:33.451Z,3381.00
2023-06-07T05:43:33.483Z,3431.00
2023-06-07T05:44:33.497Z,3447.00
2023-06-07T05:45:33.527Z,3478.00
2023-06-07T05:46:33.580Z,3504.00
2023-06-07T05:47:33.609Z,3542.00
2023-06-07T05:48:33.617Z,3585.00
2023-06-07T05:49:33.614Z,3582.00
2023-06-07T05:50:33.654Z,3607.00
2023-06-07T05:51:33.699Z,3634.00
2023-06-07T05:52:33.674Z,3662.00
2023-06-07T05:53:33.694Z,3676.00
2023-06-07T05:54:33.715Z,3693.00
2023-06-07T05:55:33.755Z,3720.00
2023-06-07T05:56:33.746Z,3717.00
2023-06-07T05:57:33.783Z,3713.00
2023-06-07T05:58:33.757Z,3727.00
2023-06-07T05:59:33.775Z,3743.00
2023-06-07T06:00:33.805Z,3724.00
2023-06-07T06:01:33.766Z,3725.00
2023-06-07T06:02:33.930Z,3739.00
2023-06-07T06:03:33.832Z,3746.00
2023-06-07T06:04:33.901Z,3734.00
2023-06-07T06:05:33.795Z,3728.00
2023-06-07T06:06:33.807Z,3731.00
2023-06-07T06:07:33.802Z,3731.00
2023-06-07T06:08:33.780Z,3734.00
2023-06-07T06:09:33.791Z,3743.00
2023-06-07T06:10:35.798Z,3734.00
2023-06-07T06:11:33.909Z,3727.00
2023-06-07T06:12:33.948Z,3752.00
2023-06-07T06:13:33.937Z,3745.00
2023-06-07T06:14:34.001Z,3747.00
2023-06-07T06:15:34.000Z,3739.00
2023-06-07T06:16:34.052Z,3727.00
2023-06-07T06:17:34.078Z,3749.00
2023-06-07T06:18:34.138Z,3762.00
2023-06-07T06:19:34.202Z,3739.00
2023-06-07T06:20:34.251Z,3737.00
2023-06-07T06:21:34.474Z,3766.00
2023-06-07T06:22:34.376Z,3762.00
2023-06-07T06:23:34.446Z,3753.00
2023-06-07T06:24:34.493Z,3745.00
2023-06-07T06:25:34.547Z,3755.00
2023-06-07T06:26:34.988Z,3744.00
2023-06-07T06:27:34.661Z,3732.00
2023-06-07T06:28:34.711Z,3731.00
2023-06-07T06:29:34.737Z,3707.00
2023-06-07T06:30:34.792Z,3706.00
2023-06-07T06:31:35.101Z,3618.00
2023-06-07T06:32:34.896Z,3518.00
2023-06-07T06:33:34.939Z,3444.00
2023-06-07T06:34:34.981Z,3390.00
2023-06-07T06:35:35.052Z,3292.00
2023-06-07T06:36:35.469Z,3221.00
2023-06-07T06:37:35.169Z,3138.00
2023-06-07T06:38:35.200Z,3240.00
2023-06-07T06:39:35.238Z,3281.00
2023-06-07T06:40:35.305Z,3295.00
2023-06-07T06:41:35.400Z,3247.00
2023-06-07T06:42:35.437Z,3277.00
2023-06-07T06:43:35.453Z,3274.00
2023-06-07T06:44:35.522Z,3278.00
2023-06-07T06:45:35.544Z,3307.00
2023-06-07T06:46:36.064Z,3307.00
2023-06-07T06:47:35.674Z,3302.00
2023-06-07T06:48:35.721Z,3306.00
2023-06-07T06:49:35.846Z,3309.00
2023-06-07T06:50:36.008Z,3324.00
2023-06-07T06:51:35.988Z,3313.00
2023-06-07T06:52:35.815Z,3293.00
2023-06-07T06:53:35.843Z,3279.00
2023-06-07T06:54:35.851Z,3325.00
2023-06-07T06:55:35.876Z,3350.00
2023-06-07T06:56:35.988Z,3368.00
2023-06-07T06:57:35.952Z,3386.00
2023-06-07T06:58:36.012Z,3381.00
2023-06-07T06:59:35.946Z,3382.00
2023-06-07T07:00:35.965Z,3398.00
2023-06-07T07:01:36.531Z,3364.00
2023-06-07T07:02:35.992Z,3343.00
2023-06-07T07:03:36.043Z,3362.00
2023-06-07T07:04:36.127Z,3361.00
2023-06-07T07:05:36.011Z,3375.00
2023-06-07T07:06:36.097Z,3410.00
2023-06-07T07:07:36.024Z,3389.00
2023-06-07T07:08:36.029Z,3365.00
2023-06-07T07:09:36.009Z,3379.00
2023-06-07T07:10:36.013Z,3391.00
2023-06-07T07:11:36.050Z,3430.00
2023-06-07T07:12:36.107Z,3432.00
2023-06-07T07:13:36.172Z,3430.00
2023-06-07T07:14:36.285Z,3462.00
2023-06-07T07:15:36.257Z,3456.00
2023-06-07T07:16:38.834Z,3414.00
2023-06-07T07:17:36.304Z,3422.00
2023-06-07T07:18:36.274Z,3421.00
2023-06-07T07:19:36.275Z,3394.00
2023-06-07T07:20:36.236Z,3402.00
2023-06-07T07:21:36.600Z,3391.00
2023-06-07T07:22:36.258Z,3378.00
2023-06-07T07:23:36.325Z,3344.00
2023-06-07T07:24:37.261Z,3229.00
2023-06-07T07:25:36.235Z,2918.00
2023-06-07T07:26:36.532Z,2706.00
2023-06-07T07:27:36.201Z,2496.00
2023-06-07T07:28:36.213Z,2324.00
2023-06-07T07:29:36.191Z,2100.00
2023-06-07T07:30:36.181Z,1964.00
2023-06-07T07:31:36.512Z,1914.00
2023-06-07T07:32:36.225Z,1996.00
2023-06-07T07:33:36.155Z,1886.00
2023-06-07T07:34:36.512Z,1604.00
2023-06-07T07:35:36.499Z,1371.00
2023-06-07T07:36:36.154Z,1216.00
2023-06-07T07:37:36.148Z,1113.00
2023-06-07T07:38:36.127Z,1014.00
2023-06-07T07:39:36.122Z,982.00
2023-06-07T07:40:36.131Z,1010.00
2023-06-07T07:41:36.180Z,890.00
2023-06-07T07:42:36.203Z,916.00
2023-06-07T07:43:38.099Z,935.00
2023-06-07T07:44:36.298Z,732.00
2023-06-07T07:45:36.523Z,590.00
2023-06-07T07:46:36.532Z,494.00
2023-06-07T07:47:36.474Z,504.00
2023-06-07T07:48:36.445Z,511.00
2023-06-07T07:49:36.738Z,558.00
2023-06-07T07:50:36.530Z,503.00
2023-06-07T07:51:36.566Z,457.00
2023-06-07T07:52:36.603Z,434.00
2023-06-07T07:53:36.654Z,455.00
2023-06-07T07:54:36.688Z,516.00
2023-06-07T07:55:36.724Z,622.00
2023-06-07T07:56:36.778Z,641.00
2023-06-07T07:57:36.799Z,684.00
2023-06-07T07:58:36.834Z,724.00
2023-06-07T07:59:36.896Z,779.00
2023-06-07T08:00:36.916Z,652.00
2023-06-07T08:01:37.019Z,651.00
2023-06-07T08:02:37.195Z,695.00
2023-06-07T08:03:37.362Z,670.00
2023-06-07T08:04:37.154Z,654.00
2023-06-07T08:05:37.164Z,652.00
2023-06-07T08:06:37.230Z,662.00
2023-06-07T08:07:37.285Z,645.00
2023-06-07T08:08:37.322Z,680.00
2023-06-07T08:09:37.430Z,775.00
2023-06-07T08:10:37.427Z,818.00
2023-06-07T08:11:37.500Z,908.00
2023-06-07T08:12:37.552Z,736.00
2023-06-07T08:13:37.595Z,599.00
2023-06-07T08:14:37.638Z,596.00
2023-06-07T08:15:37.678Z,613.00
2023-06-07T08:16:38.056Z,545.00
2023-06-07T08:17:37.767Z,562.00
2023-06-07T08:18:37.850Z,560.00
2023-06-07T08:19:37.858Z,540.00
2023-06-07T08:20:37.887Z,495.00
2023-06-07T08:21:38.046Z,420.00
2023-06-07T08:22:37.961Z,400.00
2023-06-07T08:23:38.121Z,400.00
2023-06-07T08:24:38.064Z,400.00
2023-06-07T08:25:38.086Z,400.00
2023-06-07T08:26:38.104Z,400.00
2023-06-07T08:27:38.157Z,443.00
2023-06-07T08:28:38.216Z,451.00
2023-06-07T08:29:38.261Z,504.00
2023-06-07T08:30:38.264Z,572.00
2023-06-07T08:31:38.330Z,545.00
2023-06-07T08:32:38.369Z,507.00
2023-06-07T08:33:38.359Z,535.00
2023-06-07T08:34:38.403Z,603.00
2023-06-07T08:35:38.445Z,858.00
2023-06-07T08:36:38.537Z,943.00
2023-06-07T08:37:38.515Z,731.00
2023-06-07T08:38:39.036Z,659.00
2023-06-07T08:39:38.598Z,854.00
2023-06-07T08:40:38.668Z,1109.00
2023-06-07T08:41:39.043Z,1532.00
2023-06-07T08:42:38.684Z,1825.00
2023-06-07T08:43:38.755Z,2040.00
2023-06-07T08:44:38.730Z,2161.00
2023-06-07T08:45:40.578Z,2257.00
2023-06-07T08:46:38.834Z,2389.00
2023-06-07T08:47:38.756Z,2460.00
2023-06-07T08:48:38.762Z,2606.00
2023-06-07T08:49:38.753Z,2756.00
2023-06-07T08:50:38.716Z,2862.00
2023-06-07T08:51:38.710Z,2936.00
2023-06-07T08:52:38.800Z,3040.00
2023-06-07T08:53:39.069Z,3134.00
2023-06-07T08:54:38.714Z,3194.00
2023-06-07T08:55:38.722Z,3268.00
2023-06-07T08:56:39.079Z,3351.00
2023-06-07T08:57:38.678Z,3399.00
2023-06-07T08:58:38.674Z,3448.00
2023-06-07T08:59:38.736Z,3517.00
2023-06-07T09:00:38.697Z,3583.00
2023-06-07T09:01:39.051Z,3636.00
2023-06-07T09:02:38.701Z,3690.00
2023-06-07T09:03:38.665Z,3698.00
2023-06-07T09:04:38.651Z,3742.00
2023-06-07T09:05:38.624Z,3799.00
2023-06-07T09:06:38.629Z,3838.00
2023-06-07T09:07:38.612Z,3886.00
2023-06-07T09:08:38.636Z,3908.00
2023-06-07T09:09:38.614Z,3952.00
2023-06-07T09:10:38.600Z,3966.00
2023-06-07T09:11:38.570Z,3996.00
2023-06-07T09:12:38.579Z,4024.00
2023-06-07T09:13:38.610Z,4039.00
2023-06-07T09:14:38.572Z,4058.00
2023-06-07T09:15:38.548Z,4061.00
2023-06-07T09:16:38.616Z,4070.00
2023-06-07T09:17:38.706Z,4088.00
2023-06-07T09:18:38.561Z,4105.00
2023-06-07T09:19:38.533Z,4146.00
2023-06-07T09:20:38.503Z,4170.00
2023-06-07T09:21:38.522Z,4176.00
2023-06-07T09:22:38.488Z,4196.00
2023-06-07T09:23:38.558Z,4252.00
2023-06-07T09:24:38.495Z,4267.00
2023-06-07T09:25:38.491Z,4228.00
2023-06-07T09:26:38.575Z,4158.00
2023-06-07T09:27:38.542Z,4003.00
2023-06-07T09:28:38.711Z,3676.00
2023-06-07T09:29:38.687Z,3586.00
2023-06-07T09:30:38.642Z,3370.00
2023-06-07T09:31:39.313Z,2922.00
2023-06-07T09:33:38.767Z,2305.00
2023-06-07T09:34:38.792Z,2182.00
2023-06-07T09:35:38.916Z,2027.00
2023-06-07T09:36:38.878Z,1819.00
2023-06-07T09:37:38.964Z,1671.00
2023-06-07T09:38:39.002Z,1501.00
2023-06-07T09:39:38.995Z,1622.00
2023-06-07T09:40:39.015Z,1731.00
2023-06-07T09:41:39.134Z,1431.00
2023-06-07T09:42:39.101Z,1494.00
2023-06-07T09:43:39.218Z,1268.00
2023-06-07T09:44:39.207Z,1145.00
2023-06-07T09:45:39.384Z,970.00
2023-06-07T09:46:39.304Z,1011.00
2023-06-07T09:47:39.337Z,1125.00
2023-06-07T09:48:39.547Z,1201.00
2023-06-07T09:49:39.398Z,1205.00
2023-06-07T09:50:39.432Z,1028.00
2023-06-07T09:51:39.538Z,1080.00
2023-06-07T09:52:39.525Z,1119.00
2023-06-07T09:53:39.576Z,1374.00
2023-06-07T09:54:39.584Z,1209.00
2023-06-07T09:55:39.669Z,1191.00
2023-06-07T09:56:39.607Z,1268.00
2023-06-07T09:57:39.676Z,1128.00
2023-06-07T09:58:39.721Z,1173.00
2023-06-07T09:59:39.836Z,1202.00
2023-06-07T10:00:39.783Z,1098.00
2023-06-07T10:01:40.331Z,920.00
2023-06-07T10:02:39.849Z,763.00
2023-06-07T10:03:39.912Z,661.00
2023-06-07T10:04:39.968Z,627.00
2023-06-07T10:05:39.871Z,649.00
2023-06-07T10:06:39.927Z,673.00
2023-06-07T10:07:40.033Z,650.00
2023-06-07T10:08:39.963Z,673.00
2023-06-07T10:09:40.018Z,712.00
2023-06-07T10:10:40.036Z,741.00
2023-06-07T10:11:40.086Z,989.00
2023-06-07T10:12:40.157Z,656.00
2023-06-07T10:13:40.126Z,569.00
2023-06-07T10:14:40.139Z,589.00
2023-06-07T10:15:40.205Z,616.00
2023-06-07T10:16:40.617Z,573.00
2023-06-07T10:17:40.263Z,563.00
2023-06-07T10:18:40.257Z,545.00
2023-06-07T10:19:40.334Z,504.00
2023-06-07T10:20:40.328Z,510.00
2023-06-07T10:21:40.385Z,504.00
2023-06-07T10:22:40.386Z,461.00
2023-06-07T10:23:40.508Z,400.00
2023-06-07T10:24:40.434Z,400.00
2023-06-07T10:25:40.458Z,400.00
2023-06-07T10:26:40.603Z,400.00
2023-06-07T10:27:40.558Z,400.00
2023-06-07T10:28:40.616Z,539.00
2023-06-07T10:29:40.599Z,491.00
2023-06-07T10:30:40.626Z,500.00
2023-06-07T10:31:41.221Z,525.00
2023-06-07T10:32:40.740Z,553.00
2023-06-07T10:33:40.725Z,517.00
2023-06-07T10:34:40.744Z,522.00
2023-06-07T10:35:40.803Z,488.00
2023-06-07T10:36:40.828Z,482.00
2023-06-07T10:37:40.868Z,477.00
2023-06-07T10:38:40.933Z,468.00
2023-06-07T10:39:40.992Z,522.00
2023-06-07T10:40:41.025Z,634.00
2023-06-07T10:41:41.109Z,620.00
2023-06-07T10:42:41.147Z,625.00
2023-06-07T10:43:41.122Z,611.00
2023-06-07T10:44:41.157Z,641.00
2023-06-07T10:45:41.201Z,734.00
2023-06-07T10:46:41.309Z,584.00
2023-06-07T10:47:41.408Z,527.00
2023-06-07T10:48:41.313Z,543.00
2023-06-07T10:49:41.751Z,618.00
2023-06-07T10:50:41.410Z,992.00
2023-06-07T10:51:41.452Z,1131.00
2023-06-07T10:52:41.518Z,1313.00
2023-06-07T10:53:41.525Z,1322.00
2023-06-07T10:54:41.574Z,1487.00
2023-06-07T10:55:41.687Z,1538.00
2023-06-07T10:56:41.673Z,1516.00
2023-06-07T10:57:41.688Z,1611.00
2023-06-07T10:58:41.769Z,1498.00
2023-06-07T10:59:41.837Z,1622.00
2023-06-07T11:00:41.833Z,1794.00
2023-06-07T11:01:41.931Z,1593.00
2023-06-07T11:02:42.034Z,1701.00
2023-06-07T11:03:42.137Z,1757.00
2023-06-07T11:04:42.473Z,1828.00
2023-06-07T11:05:42.051Z,1637.00
2023-06-07T11:06:42.080Z,1572.00
2023-06-07T11:07:42.078Z,1367.00
2023-06-07T11:08:42.139Z,1312.00
2023-06-07T11:09:42.240Z,1159.00
2023-06-07T11:10:42.185Z,1208.00
2023-06-07T11:11:42.236Z,1159.00
2023-06-07T11:12:42.629Z,907.00
2023-06-07T11:13:42.338Z,852.00
2023-06-07T11:14:42.359Z,880.00
2023-06-07T11:15:42.477Z,768.00
2023-06-07T11:16:42.527Z,762.00
2023-06-07T11:17:42.556Z,660.00
2023-06-07T11:18:42.571Z,629.00
2023-06-07T11:19:42.640Z,784.00
2023-06-07T11:20:42.710Z,828.00
2023-06-07T11:21:42.764Z,739.00
2023-06-07T11:22:42.796Z,649.00
2023-06-07T11:23:42.875Z,783.00
2023-06-07T11:24:45.840Z,612.00
2023-06-07T11:25:42.927Z,593.00
2023-06-07T11:26:42.912Z,553.00
2023-06-07T11:27:42.918Z,505.00
2023-06-07T11:28:42.903Z,533.00
2023-06-07T11:29:42.998Z,546.00
2023-06-07T11:30:42.889Z,506.00
2023-06-07T11:31:42.904Z,500.00
2023-06-07T11:32:42.893Z,539.00
2023-06-07T11:33:42.882Z,503.00
2023-06-07T11:34:42.860Z,500.00
2023-06-07T11:35:42.890Z,539.00
2023-06-07T11:36:42.865Z,581.00
2023-06-07T11:37:42.911Z,590.00
2023-06-07T11:38:42.895Z,666.00
2023-06-07T11:39:42.827Z,806.00
2023-06-07T11:40:42.814Z,860.00
2023-06-07T11:41:42.839Z,905.00
2023-06-07T11:42:42.813Z,571.00
2023-06-07T11:43:42.794Z,479.00
2023-06-07T11:44:42.820Z,532.00
2023-06-07T11:45:42.766Z,440.00
2023-06-07T11:46:42.864Z,400.00
2023-06-07T11:47:42.900Z,466.00
2023-06-07T11:48:42.863Z,546.00
2023-06-07T11:49:42.770Z,569.00
2023-06-07T11:50:42.732Z,853.00
2023-06-07T11:51:42.776Z,1425.00
2023-06-07T11:52:42.752Z,1766.00
2023-06-07T11:53:42.750Z,2082.00
2023-06-07T11:54:42.738Z,2385.00
2023-06-07T11:55:42.711Z,2678.00
2023-06-07T11:56:42.702Z,2950.00
2023-06-07T11:57:42.693Z,3110.00
2023-06-07T11:58:42.677Z,3326.00
2023-06-07T11:59:42.681Z,3469.00
2023-06-07T12:00:42.746Z,3492.00
2023-06-07T12:01:42.674Z,3685.00
2023-06-07T12:02:42.724Z,3843.00
2023-06-07T12:03:45.221Z,3949.00
2023-06-07T12:04:42.726Z,3819.00
2023-06-07T12:05:42.708Z,3925.00
2023-06-07T12:06:42.704Z,4026.00
2023-06-07T12:07:42.683Z,3954.00
2023-06-07T12:08:42.690Z,3945.00
2023-06-07T12:09:42.668Z,4033.00
2023-06-07T12:10:42.671Z,4062.00
2023-06-07T12:11:42.661Z,3838.00